sensor_id;sensor_type;location;lat;lon;timestamp;temperature;humidity
44823;DHT22;51097;51.984;5.650;2023-03-01T00:01:22;0.50;99.90
44823;DHT22;51097;51.984;5.650;2023-03-01T00:03:47;0.40;99.90
44823;DHT22;51097;51.984;5.650;2023-03-01T00:06:13;0.40;99.90
44823;DHT22;51097;51.984;5.650;2023-03-01T00:08:39;0.40;99.90
44823;DHT22;51097;51.984;5.650;2023-03-01T00:11:08;0.40;99.90
44823;DHT22;51097;51.984;5.650;2023-03-01T00:13:35;0.40;99.90
44823;DHT22;51097;51.984;5.650;2023-03-01T00:16:10;0.30;99.90
44823;DHT22;51097;51.984;5.650;2023-03-01T00:18:36;0.40;99.90
44823;DHT22;51097;51.984;5.650;2023-03-01T00:21:01;0.30;99.90
44823;DHT22;51097;51.984;5.650;2023-03-01T00:23:28;0.30;99.90
44823;DHT22;51097;51.984;5.650;2023-03-01T00:25:53;0.20;99.90
44823;DHT22;51097;51.984;5.650;2023-03-01T00:28:20;0.20;99.90
44823;DHT22;51097;51.984;5.650;2023-03-01T00:30:46;0.20;99.90
44823;DHT22;51097;51.984;5.650;2023-03-01T00:33:12;0.20;99.90
44823;DHT22;51097;51.984;5.650;2023-03-01T00:35:38;0.20;99.90
44823;DHT22;51097;51.984;5.650;2023-03-01T00:38:04;0.10;99.90
44823;DHT22;51097;51.984;5.650;2023-03-01T00:40:32;0.10;99.90
44823;DHT22;51097;51.984;5.650;2023-03-01T00:42:58;0.10;99.90
44823;DHT22;51097;51.984;5.650;2023-03-01T00:45:24;0.00;99.90
44823;DHT22;51097;51.984;5.650;2023-03-01T00:47:50;0.00;99.90
44823;DHT22;51097;51.984;5.650;2023-03-01T00:50:17;0.00;99.90
44823;DHT22;51097;51.984;5.650;2023-03-01T00:52:42;0.10;99.90
44823;DHT22;51097;51.984;5.650;2023-03-01T00:55:08;0.00;99.90
44823;DHT22;51097;51.984;5.650;2023-03-01T00:57:34;0.00;99.90
44823;DHT22;51097;51.984;5.650;2023-03-01T01:00:00;-0.10;99.90
44823;DHT22;51097;51.984;5.650;2023-03-01T01:02:26;-0.10;99.90
44823;DHT22;51097;51.984;5.650;2023-03-01T01:04:51;-0.10;99.90
44823;DHT22;51097;51.984;5.650;2023-03-01T01:07:18;-0.10;99.90
44823;DHT22;51097;51.984;5.650;2023-03-01T01:09:45;-0.10;99.90
44823;DHT22;51097;51.984;5.650;2023-03-01T01:12:11;-0.20;99.90
44823;DHT22;51097;51.984;5.650;2023-03-01T01:14:37;-0.20;99.90
44823;DHT22;51097;51.984;5.650;2023-03-01T01:17:02;-0.20;99.90
44823;DHT22;51097;51.984;5.650;2023-03-01T01:19:28;-0.20;99.90
44823;DHT22;51097;51.984;5.650;2023-03-01T01:21:54;-0.20;99.90
44823;DHT22;51097;51.984;5.650;2023-03-01T01:24:19;-0.20;99.90
44823;DHT22;51097;51.984;5.650;2023-03-01T01:26:45;-0.20;99.90
44823;DHT22;51097;51.984;5.650;2023-03-01T01:29:12;-0.30;99.90
44823;DHT22;51097;51.984;5.650;2023-03-01T01:31:39;-0.30;99.90
44823;DHT22;51097;51.984;5.650;2023-03-01T01:34:08;-0.30;99.90
44823;DHT22;51097;51.984;5.650;2023-03-01T01:36:34;-0.30;99.90
44823;DHT22;51097;51.984;5.650;2023-03-01T01:39:01;-0.30;99.90
44823;DHT22;51097;51.984;5.650;2023-03-01T01:41:28;-0.30;99.90
44823;DHT22;51097;51.984;5.650;2023-03-01T01:44:15;-0.30;99.90
44823;DHT22;51097;51.984;5.650;2023-03-01T01:46:47;-0.30;99.90
44823;DHT22;51097;51.984;5.650;2023-03-01T01:51:51;-0.40;99.90
44823;DHT22;51097;51.984;5.650;2023-03-01T01:54:31;-0.40;99.90
44823;DHT22;51097;51.984;5.650;2023-03-01T01:57:03;-0.40;99.90
44823;DHT22;51097;51.984;5.650;2023-03-01T01:59:31;-0.50;99.90
44823;DHT22;51097;51.984;5.650;2023-03-01T02:01:59;-0.50;99.90
44823;DHT22;51097;51.984;5.650;2023-03-01T02:04:26;-0.50;99.90
44823;DHT22;51097;51.984;5.650;2023-03-01T02:06:58;-0.50;99.90
44823;DHT22;51097;51.984;5.650;2023-03-01T02:09:26;-0.50;99.90
44823;DHT22;51097;51.984;5.650;2023-03-01T02:11:53;-0.50;99.90
44823;DHT22;51097;51.984;5.650;2023-03-01T02:14:19;-0.60;99.90
44823;DHT22;51097;51.984;5.650;2023-03-01T02:16:45;-0.50;99.90
44823;DHT22;51097;51.984;5.650;2023-03-01T02:22:36;-0.60;99.90
44823;DHT22;51097;51.984;5.650;2023-03-01T02:27:58;-0.60;99.90
44823;DHT22;51097;51.984;5.650;2023-03-01T02:30:28;-0.60;99.90
44823;DHT22;51097;51.984;5.650;2023-03-01T02:32:56;-0.70;99.90
44823;DHT22;51097;51.984;5.650;2023-03-01T02:35:38;-0.70;99.90
44823;DHT22;51097;51.984;5.650;2023-03-01T02:38:06;-0.70;99.90
44823;DHT22;51097;51.984;5.650;2023-03-01T02:40:34;-0.80;99.90
44823;DHT22;51097;51.984;5.650;2023-03-01T02:42:59;-0.70;99.90
44823;DHT22;51097;51.984;5.650;2023-03-01T02:45:26;-0.70;99.90
44823;DHT22;51097;51.984;5.650;2023-03-01T02:47:56;-0.70;99.90
44823;DHT22;51097;51.984;5.650;2023-03-01T02:55:41;-0.80;99.90
44823;DHT22;51097;51.984;5.650;2023-03-01T02:58:07;-0.90;99.90
44823;DHT22;51097;51.984;5.650;2023-03-01T03:00:37;-0.80;99.90
44823;DHT22;51097;51.984;5.650;2023-03-01T03:03:06;-0.80;99.90
44823;DHT22;51097;51.984;5.650;2023-03-01T03:05:33;-0.80;99.90
44823;DHT22;51097;51.984;5.650;2023-03-01T03:08:01;-0.80;99.90
44823;DHT22;51097;51.984;5.650;2023-03-01T03:10:32;-0.80;99.90
44823;DHT22;51097;51.984;5.650;2023-03-01T03:13:01;-0.80;99.90
44823;DHT22;51097;51.984;5.650;2023-03-01T03:15:27;-0.80;99.90
44823;DHT22;51097;51.984;5.650;2023-03-01T03:17:53;-0.90;99.90
44823;DHT22;51097;51.984;5.650;2023-03-01T03:20:22;-0.90;99.90
44823;DHT22;51097;51.984;5.650;2023-03-01T03:22:51;-0.90;99.90
44823;DHT22;51097;51.984;5.650;2023-03-01T03:25:18;-0.90;99.90
44823;DHT22;51097;51.984;5.650;2023-03-01T03:27:45;-0.90;99.90
44823;DHT22;51097;51.984;5.650;2023-03-01T03:30:15;-0.80;99.90
44823;DHT22;51097;51.984;5.650;2023-03-01T03:32:43;-0.90;99.90
44823;DHT22;51097;51.984;5.650;2023-03-01T03:35:23;-0.90;99.90
44823;DHT22;51097;51.984;5.650;2023-03-01T03:37:50;-0.80;99.90
44823;DHT22;51097;51.984;5.650;2023-03-01T03:40:39;-0.80;99.90
44823;DHT22;51097;51.984;5.650;2023-03-01T03:43:11;-0.80;99.90
44823;DHT22;51097;51.984;5.650;2023-03-01T03:45:38;-0.90;99.90
44823;DHT22;51097;51.984;5.650;2023-03-01T03:48:05;-0.90;99.90
44823;DHT22;51097;51.984;5.650;2023-03-01T03:50:32;-0.90;99.90
44823;DHT22;51097;51.984;5.650;2023-03-01T03:53:00;-0.90;99.90
44823;DHT22;51097;51.984;5.650;2023-03-01T03:55:26;-0.90;99.90
44823;DHT22;51097;51.984;5.650;2023-03-01T03:57:58;-0.90;99.90
44823;DHT22;51097;51.984;5.650;2023-03-01T04:00:27;-0.90;99.90
44823;DHT22;51097;51.984;5.650;2023-03-01T04:02:53;-0.90;99.90
44823;DHT22;51097;51.984;5.650;2023-03-01T04:05:22;-0.90;99.90
44823;DHT22;51097;51.984;5.650;2023-03-01T04:07:48;-0.90;99.90
44823;DHT22;51097;51.984;5.650;2023-03-01T04:10:17;-0.90;99.90
44823;DHT22;51097;51.984;5.650;2023-03-01T04:12:43;-0.90;99.90
44823;DHT22;51097;51.984;5.650;2023-03-01T04:15:10;-1.00;99.90
44823;DHT22;51097;51.984;5.650;2023-03-01T04:20:05;-1.00;99.90
44823;DHT22;51097;51.984;5.650;2023-03-01T04:22:32;-1.00;99.90
44823;DHT22;51097;51.984;5.650;2023-03-01T04:24:58;-1.00;99.90
44823;DHT22;51097;51.984;5.650;2023-03-01T04:27:27;-1.00;99.90
44823;DHT22;51097;51.984;5.650;2023-03-01T04:29:52;-1.00;99.90
44823;DHT22;51097;51.984;5.650;2023-03-01T04:32:18;-1.10;99.90
44823;DHT22;51097;51.984;5.650;2023-03-01T04:34:44;-1.00;99.90
44823;DHT22;51097;51.984;5.650;2023-03-01T04:37:09;-1.00;99.90
44823;DHT22;51097;51.984;5.650;2023-03-01T04:39:35;-1.10;99.90
44823;DHT22;51097;51.984;5.650;2023-03-01T04:42:16;-1.00;99.90
44823;DHT22;51097;51.984;5.650;2023-03-01T04:44:45;-1.10;99.90
44823;DHT22;51097;51.984;5.650;2023-03-01T04:47:11;-1.10;99.90
44823;DHT22;51097;51.984;5.650;2023-03-01T04:49:37;-1.10;99.90
44823;DHT22;51097;51.984;5.650;2023-03-01T04:52:04;-1.10;99.90
44823;DHT22;51097;51.984;5.650;2023-03-01T04:54:31;-1.10;99.90
44823;DHT22;51097;51.984;5.650;2023-03-01T04:56:57;-1.10;99.90
44823;DHT22;51097;51.984;5.650;2023-03-01T04:59:23;-1.10;99.90
44823;DHT22;51097;51.984;5.650;2023-03-01T05:01:53;-1.00;99.90
44823;DHT22;51097;51.984;5.650;2023-03-01T05:04:24;-1.00;99.90
44823;DHT22;51097;51.984;5.650;2023-03-01T05:06:50;-1.00;99.90
44823;DHT22;51097;51.984;5.650;2023-03-01T05:09:15;-1.00;99.90
44823;DHT22;51097;51.984;5.650;2023-03-01T05:11:41;-1.10;99.90
44823;DHT22;51097;51.984;5.650;2023-03-01T05:14:08;-1.10;99.90
44823;DHT22;51097;51.984;5.650;2023-03-01T05:16:35;-1.00;99.90
44823;DHT22;51097;51.984;5.650;2023-03-01T05:19:02;-1.10;99.90
44823;DHT22;51097;51.984;5.650;2023-03-01T05:21:37;-1.00;99.90
44823;DHT22;51097;51.984;5.650;2023-03-01T05:24:23;-1.00;99.90
44823;DHT22;51097;51.984;5.650;2023-03-01T05:26:49;-1.00;99.90
44823;DHT22;51097;51.984;5.650;2023-03-01T05:29:17;-1.10;99.90
44823;DHT22;51097;51.984;5.650;2023-03-01T05:31:43;-1.10;99.90
44823;DHT22;51097;51.984;5.650;2023-03-01T05:34:08;-1.10;99.90
44823;DHT22;51097;51.984;5.650;2023-03-01T05:36:34;-1.00;99.90
44823;DHT22;51097;51.984;5.650;2023-03-01T05:39:00;-1.00;99.90
44823;DHT22;51097;51.984;5.650;2023-03-01T05:41:25;-1.00;99.90
44823;DHT22;51097;51.984;5.650;2023-03-01T05:43:51;-1.10;99.90
44823;DHT22;51097;51.984;5.650;2023-03-01T05:46:17;-1.10;99.90
44823;DHT22;51097;51.984;5.650;2023-03-01T05:48:42;-1.10;99.90
44823;DHT22;51097;51.984;5.650;2023-03-01T05:51:08;-1.20;99.90
44823;DHT22;51097;51.984;5.650;2023-03-01T05:53:34;-1.20;99.90
44823;DHT22;51097;51.984;5.650;2023-03-01T05:56:02;-1.20;99.90
44823;DHT22;51097;51.984;5.650;2023-03-01T05:58:27;-1.30;99.90
44823;DHT22;51097;51.984;5.650;2023-03-01T06:00:53;-1.30;99.90
44823;DHT22;51097;51.984;5.650;2023-03-01T06:03:19;-1.30;99.90
44823;DHT22;51097;51.984;5.650;2023-03-01T06:05:44;-1.30;99.90
44823;DHT22;51097;51.984;5.650;2023-03-01T06:08:11;-1.30;99.90
44823;DHT22;51097;51.984;5.650;2023-03-01T06:10:37;-1.30;99.90
44823;DHT22;51097;51.984;5.650;2023-03-01T06:13:02;-1.30;99.90
44823;DHT22;51097;51.984;5.650;2023-03-01T06:15:28;-1.30;99.90
44823;DHT22;51097;51.984;5.650;2023-03-01T06:17:55;-1.30;99.90
44823;DHT22;51097;51.984;5.650;2023-03-01T06:20:23;-1.40;99.90
44823;DHT22;51097;51.984;5.650;2023-03-01T06:22:50;-1.40;99.90
44823;DHT22;51097;51.984;5.650;2023-03-01T06:25:19;-1.40;99.90
44823;DHT22;51097;51.984;5.650;2023-03-01T06:27:45;-1.40;99.90
44823;DHT22;51097;51.984;5.650;2023-03-01T06:30:12;-1.40;99.90
44823;DHT22;51097;51.984;5.650;2023-03-01T06:32:39;-1.40;99.90
44823;DHT22;51097;51.984;5.650;2023-03-01T06:35:13;-1.40;99.90
44823;DHT22;51097;51.984;5.650;2023-03-01T06:37:40;-1.40;99.90
44823;DHT22;51097;51.984;5.650;2023-03-01T06:40:06;-1.40;99.90
44823;DHT22;51097;51.984;5.650;2023-03-01T06:42:34;-1.40;99.90
44823;DHT22;51097;51.984;5.650;2023-03-01T06:45:00;-1.40;99.90
44823;DHT22;51097;51.984;5.650;2023-03-01T06:47:26;-1.30;99.90
44823;DHT22;51097;51.984;5.650;2023-03-01T06:49:51;-1.30;99.90
44823;DHT22;51097;51.984;5.650;2023-03-01T06:52:17;-1.30;99.90
44823;DHT22;51097;51.984;5.650;2023-03-01T06:54:42;-1.30;99.90
44823;DHT22;51097;51.984;5.650;2023-03-01T06:57:08;-1.20;99.90
44823;DHT22;51097;51.984;5.650;2023-03-01T06:59:33;-1.20;99.90
44823;DHT22;51097;51.984;5.650;2023-03-01T07:01:59;-1.20;99.90
44823;DHT22;51097;51.984;5.650;2023-03-01T07:04:24;-1.10;99.90
44823;DHT22;51097;51.984;5.650;2023-03-01T07:06:50;-1.10;99.90
44823;DHT22;51097;51.984;5.650;2023-03-01T07:09:21;-1.20;99.90
44823;DHT22;51097;51.984;5.650;2023-03-01T07:11:48;-1.10;99.90
44823;DHT22;51097;51.984;5.650;2023-03-01T07:14:13;-1.00;99.90
44823;DHT22;51097;51.984;5.650;2023-03-01T07:16:39;-0.90;99.90
44823;DHT22;51097;51.984;5.650;2023-03-01T07:19:05;-0.90;99.90
44823;DHT22;51097;51.984;5.650;2023-03-01T07:21:31;-0.90;99.90
44823;DHT22;51097;51.984;5.650;2023-03-01T07:23:56;-0.80;99.90
44823;DHT22;51097;51.984;5.650;2023-03-01T07:26:22;-0.80;99.90
44823;DHT22;51097;51.984;5.650;2023-03-01T07:28:48;-0.80;99.90
44823;DHT22;51097;51.984;5.650;2023-03-01T07:31:13;-0.70;99.90
44823;DHT22;51097;51.984;5.650;2023-03-01T07:33:39;-0.60;99.90
44823;DHT22;51097;51.984;5.650;2023-03-01T07:36:05;-0.50;99.90
44823;DHT22;51097;51.984;5.650;2023-03-01T07:38:31;-0.50;99.90
44823;DHT22;51097;51.984;5.650;2023-03-01T07:41:02;-0.40;99.90
44823;DHT22;51097;51.984;5.650;2023-03-01T07:43:29;-0.30;99.90
44823;DHT22;51097;51.984;5.650;2023-03-01T07:45:57;-0.20;99.90
44823;DHT22;51097;51.984;5.650;2023-03-01T07:48:22;-0.10;99.90
44823;DHT22;51097;51.984;5.650;2023-03-01T07:50:48;0.00;99.90
44823;DHT22;51097;51.984;5.650;2023-03-01T07:53:13;0.10;99.90
44823;DHT22;51097;51.984;5.650;2023-03-01T07:55:39;0.30;99.90
44823;DHT22;51097;51.984;5.650;2023-03-01T07:58:05;0.30;99.90
44823;DHT22;51097;51.984;5.650;2023-03-01T08:00:31;0.50;99.90
44823;DHT22;51097;51.984;5.650;2023-03-01T08:02:59;0.60;99.90
44823;DHT22;51097;51.984;5.650;2023-03-01T08:05:25;0.80;99.90
44823;DHT22;51097;51.984;5.650;2023-03-01T08:07:51;0.80;99.90
44823;DHT22;51097;51.984;5.650;2023-03-01T08:10:17;1.00;99.90
44823;DHT22;51097;51.984;5.650;2023-03-01T08:12:42;1.20;99.90
44823;DHT22;51097;51.984;5.650;2023-03-01T08:15:08;1.30;99.90
44823;DHT22;51097;51.984;5.650;2023-03-01T08:17:34;1.40;99.90
44823;DHT22;51097;51.984;5.650;2023-03-01T08:19:59;1.60;99.90
44823;DHT22;51097;51.984;5.650;2023-03-01T08:22:25;1.80;99.90
44823;DHT22;51097;51.984;5.650;2023-03-01T08:24:51;1.80;99.90
44823;DHT22;51097;51.984;5.650;2023-03-01T08:27:17;2.10;99.90
44823;DHT22;51097;51.984;5.650;2023-03-01T08:29:42;2.30;99.90
44823;DHT22;51097;51.984;5.650;2023-03-01T08:32:08;2.50;99.90
44823;DHT22;51097;51.984;5.650;2023-03-01T08:34:34;2.70;99.90
44823;DHT22;51097;51.984;5.650;2023-03-01T08:37:01;2.90;99.90
44823;DHT22;51097;51.984;5.650;2023-03-01T08:39:26;3.10;99.90
44823;DHT22;51097;51.984;5.650;2023-03-01T08:41:52;3.30;99.90
44823;DHT22;51097;51.984;5.650;2023-03-01T08:44:18;3.50;99.90
44823;DHT22;51097;51.984;5.650;2023-03-01T08:46:44;3.70;99.90
44823;DHT22;51097;51.984;5.650;2023-03-01T08:49:16;3.90;99.90
44823;DHT22;51097;51.984;5.650;2023-03-01T08:51:43;4.10;99.90
44823;DHT22;51097;51.984;5.650;2023-03-01T08:54:13;4.20;99.90
44823;DHT22;51097;51.984;5.650;2023-03-01T08:56:40;4.40;99.90
44823;DHT22;51097;51.984;5.650;2023-03-01T08:59:06;4.60;99.90
44823;DHT22;51097;51.984;5.650;2023-03-01T09:01:31;4.70;99.90
44823;DHT22;51097;51.984;5.650;2023-03-01T09:03:57;4.90;99.90
44823;DHT22;51097;51.984;5.650;2023-03-01T09:06:22;5.00;99.90
44823;DHT22;51097;51.984;5.650;2023-03-01T09:08:49;5.00;99.90
44823;DHT22;51097;51.984;5.650;2023-03-01T09:11:17;5.20;99.90
44823;DHT22;51097;51.984;5.650;2023-03-01T09:13:44;5.20;99.90
44823;DHT22;51097;51.984;5.650;2023-03-01T09:16:12;5.20;99.90
44823;DHT22;51097;51.984;5.650;2023-03-01T09:18:38;5.50;99.90
44823;DHT22;51097;51.984;5.650;2023-03-01T09:21:15;5.60;99.90
44823;DHT22;51097;51.984;5.650;2023-03-01T09:23:46;5.80;99.90
44823;DHT22;51097;51.984;5.650;2023-03-01T09:26:15;5.90;99.90
44823;DHT22;51097;51.984;5.650;2023-03-01T09:28:42;5.90;99.90
44823;DHT22;51097;51.984;5.650;2023-03-01T09:31:09;5.90;99.90
44823;DHT22;51097;51.984;5.650;2023-03-01T09:33:38;5.90;99.90
44823;DHT22;51097;51.984;5.650;2023-03-01T09:36:06;6.20;99.90
44823;DHT22;51097;51.984;5.650;2023-03-01T09:38:32;6.10;99.90
44823;DHT22;51097;51.984;5.650;2023-03-01T09:40:59;6.30;99.90
44823;DHT22;51097;51.984;5.650;2023-03-01T09:45:55;6.60;99.90
44823;DHT22;51097;51.984;5.650;2023-03-01T09:48:26;6.70;99.90
44823;DHT22;51097;51.984;5.650;2023-03-01T09:50:54;6.80;99.90
44823;DHT22;51097;51.984;5.650;2023-03-01T09:53:22;6.80;99.90
44823;DHT22;51097;51.984;5.650;2023-03-01T09:55:58;7.10;99.90
44823;DHT22;51097;51.984;5.650;2023-03-01T09:58:47;7.30;99.90
44823;DHT22;51097;51.984;5.650;2023-03-01T10:04:19;7.40;99.90
44823;DHT22;51097;51.984;5.650;2023-03-01T10:06:54;7.40;99.90
44823;DHT22;51097;51.984;5.650;2023-03-01T10:09:22;7.50;99.90
44823;DHT22;51097;51.984;5.650;2023-03-01T10:11:51;7.60;99.90
44823;DHT22;51097;51.984;5.650;2023-03-01T10:14:30;7.60;99.90
44823;DHT22;51097;51.984;5.650;2023-03-01T10:21:54;8.10;99.70
44823;DHT22;51097;51.984;5.650;2023-03-01T10:24:22;8.10;97.90
44823;DHT22;51097;51.984;5.650;2023-03-01T10:27:00;8.00;97.10
44823;DHT22;51097;51.984;5.650;2023-03-01T10:32:10;8.20;96.60
44823;DHT22;51097;51.984;5.650;2023-03-01T10:34:36;8.40;96.90
44823;DHT22;51097;51.984;5.650;2023-03-01T10:37:17;8.60;96.30
44823;DHT22;51097;51.984;5.650;2023-03-01T10:40:04;8.80;96.00
44823;DHT22;51097;51.984;5.650;2023-03-01T10:42:39;8.80;95.00
44823;DHT22;51097;51.984;5.650;2023-03-01T10:48:17;8.80;96.50
44823;DHT22;51097;51.984;5.650;2023-03-01T10:51:04;8.80;95.60
44823;DHT22;51097;51.984;5.650;2023-03-01T10:53:57;9.10;96.20
44823;DHT22;51097;51.984;5.650;2023-03-01T10:56:22;9.00;95.00
44823;DHT22;51097;51.984;5.650;2023-03-01T10:59:01;9.10;95.20
44823;DHT22;51097;51.984;5.650;2023-03-01T11:01:30;9.10;94.60
44823;DHT22;51097;51.984;5.650;2023-03-01T11:06:33;9.20;94.60
44823;DHT22;51097;51.984;5.650;2023-03-01T11:09:15;9.10;94.00
44823;DHT22;51097;51.984;5.650;2023-03-01T11:11:41;9.20;94.50
44823;DHT22;51097;51.984;5.650;2023-03-01T11:14:17;9.30;94.00
44823;DHT22;51097;51.984;5.650;2023-03-01T11:16:45;9.40;94.10
44823;DHT22;51097;51.984;5.650;2023-03-01T11:21:41;9.30;94.50
44823;DHT22;51097;51.984;5.650;2023-03-01T11:24:14;9.50;94.90
44823;DHT22;51097;51.984;5.650;2023-03-01T11:26:42;9.50;94.40
44823;DHT22;51097;51.984;5.650;2023-03-01T11:30:15;9.60;94.50
44823;DHT22;51097;51.984;5.650;2023-03-01T11:32:29;9.70;93.70
44823;DHT22;51097;51.984;5.650;2023-03-01T11:35:02;9.80;93.70
44823;DHT22;51097;51.984;5.650;2023-03-01T11:37:37;9.80;92.10
44823;DHT22;51097;51.984;5.650;2023-03-01T11:40:12;9.80;92.40
44823;DHT22;51097;51.984;5.650;2023-03-01T11:43:02;9.80;90.60
44823;DHT22;51097;51.984;5.650;2023-03-01T11:45:47;9.90;90.90
44823;DHT22;51097;51.984;5.650;2023-03-01T11:51:11;9.90;91.40
44823;DHT22;51097;51.984;5.650;2023-03-01T11:57:31;9.90;91.20
44823;DHT22;51097;51.984;5.650;2023-03-01T11:59:45;10.10;91.90
44823;DHT22;51097;51.984;5.650;2023-03-01T12:12:46;10.20;93.60
44823;DHT22;51097;51.984;5.650;2023-03-01T12:32:10;10.60;92.00
44823;DHT22;51097;51.984;5.650;2023-03-01T12:35:00;10.60;92.90
44823;DHT22;51097;51.984;5.650;2023-03-01T12:37:52;10.50;93.20
44823;DHT22;51097;51.984;5.650;2023-03-01T12:45:52;10.80;93.00
44823;DHT22;51097;51.984;5.650;2023-03-01T12:51:02;10.80;92.90
44823;DHT22;51097;51.984;5.650;2023-03-01T12:53:32;10.90;94.00
44823;DHT22;51097;51.984;5.650;2023-03-01T12:56:02;11.10;93.40
44823;DHT22;51097;51.984;5.650;2023-03-01T13:04:17;11.10;91.10
44823;DHT22;51097;51.984;5.650;2023-03-01T13:07:04;11.30;91.70
44823;DHT22;51097;51.984;5.650;2023-03-01T13:15:24;11.20;92.60
44823;DHT22;51097;51.984;5.650;2023-03-01T13:18:33;11.40;93.60
44823;DHT22;51097;51.984;5.650;2023-03-01T13:20:56;11.60;92.40
44823;DHT22;51097;51.984;5.650;2023-03-01T13:23:43;11.70;92.20
44823;DHT22;51097;51.984;5.650;2023-03-01T13:26:17;11.80;94.20
44823;DHT22;51097;51.984;5.650;2023-03-01T13:33:47;12.30;93.50
44823;DHT22;51097;51.984;5.650;2023-03-01T13:41:52;12.50;90.50
44823;DHT22;51097;51.984;5.650;2023-03-01T13:44:37;12.50;90.20
44823;DHT22;51097;51.984;5.650;2023-03-01T13:49:56;12.60;90.90
44823;DHT22;51097;51.984;5.650;2023-03-01T13:52:40;12.60;91.50
44823;DHT22;51097;51.984;5.650;2023-03-01T13:57:37;12.90;87.30
44823;DHT22;51097;51.984;5.650;2023-03-01T14:00:24;12.90;87.20
44823;DHT22;51097;51.984;5.650;2023-03-01T14:03:10;13.00;91.40
44823;DHT22;51097;51.984;5.650;2023-03-01T14:05:36;12.90;91.50
44823;DHT22;51097;51.984;5.650;2023-03-01T14:08:17;13.10;90.20
44823;DHT22;51097;51.984;5.650;2023-03-01T14:11:02;13.10;91.80
44823;DHT22;51097;51.984;5.650;2023-03-01T14:21:42;13.40;82.60
44823;DHT22;51097;51.984;5.650;2023-03-01T14:24:17;13.40;85.50
44823;DHT22;51097;51.984;5.650;2023-03-01T14:26:43;13.40;86.30
44823;DHT22;51097;51.984;5.650;2023-03-01T14:29:24;13.40;86.20
44823;DHT22;51097;51.984;5.650;2023-03-01T14:31:49;13.40;87.90
44823;DHT22;51097;51.984;5.650;2023-03-01T14:34:23;13.60;87.00
44823;DHT22;51097;51.984;5.650;2023-03-01T14:36:49;13.70;84.70
44823;DHT22;51097;51.984;5.650;2023-03-01T14:39:25;13.70;89.00
44823;DHT22;51097;51.984;5.650;2023-03-01T14:41:52;13.90;90.60
44823;DHT22;51097;51.984;5.650;2023-03-01T14:44:23;13.80;82.60
44823;DHT22;51097;51.984;5.650;2023-03-01T14:46:53;13.50;80.70
44823;DHT22;51097;51.984;5.650;2023-03-01T14:49:21;13.50;84.40
44823;DHT22;51097;51.984;5.650;2023-03-01T14:51:54;13.30;84.70
44823;DHT22;51097;51.984;5.650;2023-03-01T14:54:28;13.20;85.60
44823;DHT22;51097;51.984;5.650;2023-03-01T14:56:59;13.30;88.50
44823;DHT22;51097;51.984;5.650;2023-03-01T14:59:25;13.00;87.10
44823;DHT22;51097;51.984;5.650;2023-03-01T15:01:51;12.60;87.10
44823;DHT22;51097;51.984;5.650;2023-03-01T15:04:18;12.60;83.50
44823;DHT22;51097;51.984;5.650;2023-03-01T15:06:45;12.50;89.10
44823;DHT22;51097;51.984;5.650;2023-03-01T15:09:14;12.50;88.40
44823;DHT22;51097;51.984;5.650;2023-03-01T15:11:41;12.40;85.00
44823;DHT22;51097;51.984;5.650;2023-03-01T15:14:48;12.40;86.30
44823;DHT22;51097;51.984;5.650;2023-03-01T15:17:37;12.50;83.10
44823;DHT22;51097;51.984;5.650;2023-03-01T15:20:17;12.30;83.20
44823;DHT22;51097;51.984;5.650;2023-03-01T15:22:47;12.00;83.70
44823;DHT22;51097;51.984;5.650;2023-03-01T15:25:23;11.90;84.40
44823;DHT22;51097;51.984;5.650;2023-03-01T15:27:52;11.90;84.10
44823;DHT22;51097;51.984;5.650;2023-03-01T15:30:23;12.10;85.50
44823;DHT22;51097;51.984;5.650;2023-03-01T15:33:16;11.90;86.70
44823;DHT22;51097;51.984;5.650;2023-03-01T15:35:50;11.90;85.10
44823;DHT22;51097;51.984;5.650;2023-03-01T15:38:31;11.90;80.70
44823;DHT22;51097;51.984;5.650;2023-03-01T15:41:00;11.60;82.60
44823;DHT22;51097;51.984;5.650;2023-03-01T15:43:45;11.70;82.70
44823;DHT22;51097;51.984;5.650;2023-03-01T15:46:21;11.50;83.60
44823;DHT22;51097;51.984;5.650;2023-03-01T15:48:50;11.50;84.60
44823;DHT22;51097;51.984;5.650;2023-03-01T15:51:18;11.40;85.40
44823;DHT22;51097;51.984;5.650;2023-03-01T15:53:50;11.70;83.30
44823;DHT22;51097;51.984;5.650;2023-03-01T15:56:16;11.60;83.90
44823;DHT22;51097;51.984;5.650;2023-03-01T15:58:42;11.60;81.10
44823;DHT22;51097;51.984;5.650;2023-03-01T16:01:15;11.60;83.20
44823;DHT22;51097;51.984;5.650;2023-03-01T16:03:42;11.40;84.90
44823;DHT22;51097;51.984;5.650;2023-03-01T16:06:09;11.50;83.70
44823;DHT22;51097;51.984;5.650;2023-03-01T16:08:36;11.50;81.90
44823;DHT22;51097;51.984;5.650;2023-03-01T16:11:02;11.70;84.80
44823;DHT22;51097;51.984;5.650;2023-03-01T16:13:30;11.70;86.20
44823;DHT22;51097;51.984;5.650;2023-03-01T16:15:57;11.50;81.10
44823;DHT22;51097;51.984;5.650;2023-03-01T16:18:22;11.30;80.90
44823;DHT22;51097;51.984;5.650;2023-03-01T16:20:50;11.30;81.30
44823;DHT22;51097;51.984;5.650;2023-03-01T16:23:15;11.10;82.40
44823;DHT22;51097;51.984;5.650;2023-03-01T16:25:41;11.10;82.10
44823;DHT22;51097;51.984;5.650;2023-03-01T16:28:07;11.10;81.00
44823;DHT22;51097;51.984;5.650;2023-03-01T16:30:39;11.00;82.20
44823;DHT22;51097;51.984;5.650;2023-03-01T16:33:05;10.90;82.00
44823;DHT22;51097;51.984;5.650;2023-03-01T16:35:33;10.90;84.20
44823;DHT22;51097;51.984;5.650;2023-03-01T16:37:59;10.70;84.70
44823;DHT22;51097;51.984;5.650;2023-03-01T16:40:28;10.70;82.30
44823;DHT22;51097;51.984;5.650;2023-03-01T16:42:56;10.80;85.00
44823;DHT22;51097;51.984;5.650;2023-03-01T16:45:25;10.80;83.70
44823;DHT22;51097;51.984;5.650;2023-03-01T16:47:54;10.60;84.60
44823;DHT22;51097;51.984;5.650;2023-03-01T16:50:20;10.60;84.90
44823;DHT22;51097;51.984;5.650;2023-03-01T16:52:45;10.50;85.00
44823;DHT22;51097;51.984;5.650;2023-03-01T16:55:11;10.50;83.20
44823;DHT22;51097;51.984;5.650;2023-03-01T16:57:37;10.40;84.90
44823;DHT22;51097;51.984;5.650;2023-03-01T17:00:07;10.20;87.10
44823;DHT22;51097;51.984;5.650;2023-03-01T17:02:34;10.30;85.20
44823;DHT22;51097;51.984;5.650;2023-03-01T17:05:00;10.10;85.60
44823;DHT22;51097;51.984;5.650;2023-03-01T17:07:26;10.00;88.30
44823;DHT22;51097;51.984;5.650;2023-03-01T17:09:51;9.90;87.30
44823;DHT22;51097;51.984;5.650;2023-03-01T17:12:17;9.90;88.60
44823;DHT22;51097;51.984;5.650;2023-03-01T17:14:43;10.00;88.60
44823;DHT22;51097;51.984;5.650;2023-03-01T17:17:10;9.80;90.40
44823;DHT22;51097;51.984;5.650;2023-03-01T17:19:36;9.70;90.20
44823;DHT22;51097;51.984;5.650;2023-03-01T17:22:07;9.50;90.70
44823;DHT22;51097;51.984;5.650;2023-03-01T17:24:37;9.50;91.10
44823;DHT22;51097;51.984;5.650;2023-03-01T17:27:03;9.50;92.00
44823;DHT22;51097;51.984;5.650;2023-03-01T17:29:29;9.30;92.10
44823;DHT22;51097;51.984;5.650;2023-03-01T17:31:54;9.20;92.40
44823;DHT22;51097;51.984;5.650;2023-03-01T17:34:23;9.10;92.60
44823;DHT22;51097;51.984;5.650;2023-03-01T17:36:50;9.00;92.50
44823;DHT22;51097;51.984;5.650;2023-03-01T17:39:19;8.90;92.30
44823;DHT22;51097;51.984;5.650;2023-03-01T17:41:52;8.80;92.50
44823;DHT22;51097;51.984;5.650;2023-03-01T17:44:18;8.70;93.10